createdAt,value
2022-12-24T00:00:06.330Z,97849.13
2022-12-24T00:02:35.683Z,97863.34
2022-12-24T00:05:04.809Z,97859.69
2022-12-24T00:07:32.986Z,97859.97
2022-12-24T00:10:01.334Z,97852.38
2022-12-24T00:12:29.412Z,97839.00
2022-12-24T00:14:59.127Z,97866.16
2022-12-24T00:17:27.193Z,97860.66
2022-12-24T00:19:55.194Z,97863.00
2022-12-24T00:22:23.246Z,97869.47
2022-12-24T00:24:51.264Z,97872.91
2022-12-24T00:27:19.415Z,97872.09
2022-12-24T00:29:47.404Z,97873.16
2022-12-24T00:32:19.196Z,97874.38
2022-12-24T00:34:47.291Z,97865.91
2022-12-24T00:37:15.393Z,97866.78
2022-12-24T00:39:43.517Z,97875.78
2022-12-24T00:42:11.555Z,97877.19
2022-12-24T00:44:39.624Z,97865.44
2022-12-24T00:47:11.947Z,97879.47
2022-12-24T00:49:41.687Z,97890.97
2022-12-24T00:52:09.752Z,97893.09
2022-12-24T00:54:37.943Z,97899.16
2022-12-24T00:57:06.011Z,97903.75
2022-12-24T00:59:34.046Z,97907.28
2022-12-24T01:02:02.208Z,97915.91
2022-12-24T01:04:50.157Z,97939.91
2022-12-24T01:07:19.567Z,97961.81
2022-12-24T01:09:47.652Z,97979.94
2022-12-24T01:12:15.750Z,97986.66
2022-12-24T01:14:44.095Z,98006.84
2022-12-24T01:17:12.216Z,98007.34
2022-12-24T01:19:40.300Z,98027.38
2022-12-24T01:22:08.464Z,98036.34
2022-12-24T01:24:37.974Z,98048.09
2022-12-24T01:27:06.043Z,98046.59
2022-12-24T01:29:34.166Z,98039.91
2022-12-24T01:32:02.407Z,98033.22
2022-12-24T01:34:30.531Z,98049.59
2022-12-24T01:36:58.574Z,98053.97
2022-12-24T01:39:26.655Z,98068.28
2022-12-24T01:42:13.788Z,98074.13
2022-12-24T01:44:43.353Z,98086.13
2022-12-24T01:47:14.154Z,98090.34
2022-12-24T01:49:43.618Z,98094.28
2022-12-24T01:52:13.840Z,98085.00
2022-12-24T01:54:44.652Z,98104.13
2022-12-24T01:57:17.052Z,98117.97
2022-12-24T01:59:47.603Z,98135.25
2022-12-24T02:02:16.927Z,98131.00
2022-12-24T02:04:48.739Z,98132.91
2022-12-24T02:07:16.924Z,98122.75
2022-12-24T02:09:45.219Z,98114.06
2022-12-24T02:12:14.949Z,98115.13
2022-12-24T02:14:42.997Z,98106.91
2022-12-24T02:17:15.422Z,98108.19
2022-12-24T02:20:05.749Z,98094.94
2022-12-24T02:22:40.610Z,98114.19
2022-12-24T02:25:29.461Z,98110.91
2022-12-24T02:28:01.463Z,98117.13
2022-12-24T02:30:34.244Z,98117.59
2022-12-24T02:33:07.534Z,98106.78
2022-12-24T02:35:43.917Z,98110.28
2022-12-24T02:38:15.421Z,98100.56
2022-12-24T02:40:46.208Z,98106.06
2022-12-24T02:43:18.400Z,98112.13
2022-12-24T02:45:58.555Z,98114.38
2022-12-24T02:48:29.107Z,98128.56
2022-12-24T02:50:58.515Z,98132.66
2022-12-24T02:53:26.787Z,98128.91
2022-12-24T02:56:01.927Z,98123.72
2022-12-24T02:58:36.353Z,98127.16
2022-12-24T03:01:17.696Z,98122.56
2022-12-24T03:03:55.787Z,98121.75
2022-12-24T03:06:29.700Z,98103.69
2022-12-24T03:09:01.579Z,98141.50
2022-12-24T03:11:29.811Z,98130.16
2022-12-24T03:14:00.753Z,98126.59
2022-12-24T03:16:30.285Z,98142.13
2022-12-24T03:18:59.756Z,98155.59
2022-12-24T03:21:30.228Z,98140.97
2022-12-24T03:23:58.449Z,98164.22
2022-12-24T03:26:27.794Z,98157.91
2022-12-24T03:28:56.083Z,98158.72
2022-12-24T03:31:24.174Z,98164.28
2022-12-24T03:33:53.540Z,98167.59
2022-12-24T03:36:21.540Z,98163.50
2022-12-24T03:38:49.553Z,98169.81
2022-12-24T03:41:17.551Z,98179.03
2022-12-24T03:43:47.655Z,98169.47
2022-12-24T03:46:15.627Z,98183.31
2022-12-24T03:48:43.628Z,98178.88
2022-12-24T03:51:18.048Z,98165.50
2022-12-24T03:53:46.161Z,98165.50
2022-12-24T03:56:14.182Z,98162.31
2022-12-24T03:58:42.537Z,98172.28
2022-12-24T04:01:10.670Z,98173.03
2022-12-24T04:03:38.711Z,98185.25
2022-12-24T04:06:08.127Z,98177.69
2022-12-24T04:08:37.876Z,98205.06
2022-12-24T04:11:09.916Z,98206.84
2022-12-24T04:13:38.341Z,98217.75
2022-12-24T04:16:07.545Z,98226.94
2022-12-24T04:18:38.380Z,98226.25
2022-12-24T04:21:07.120Z,98226.25
2022-12-24T04:23:36.184Z,98257.38
2022-12-24T04:26:06.455Z,98253.63
2022-12-24T04:28:35.099Z,98239.94
2022-12-24T04:31:04.259Z,98234.59
2022-12-24T04:33:34.641Z,98246.50
2022-12-24T04:36:03.202Z,98247.56
2022-12-24T04:38:31.523Z,98243.09
2022-12-24T04:41:01.756Z,98258.66
2022-12-24T04:43:31.327Z,98281.06
2022-12-24T04:46:05.270Z,98272.91
2022-12-24T04:48:33.372Z,98274.50
2022-12-24T04:51:02.435Z,98276.28
2022-12-24T04:53:30.464Z,98285.66
2022-12-24T04:55:59.010Z,98279.28
2022-12-24T04:58:27.396Z,98277.16
2022-12-24T05:00:57.032Z,98270.09
2022-12-24T05:03:28.199Z,98260.16
2022-12-24T05:06:01.829Z,98265.38
2022-12-24T05:08:29.943Z,98256.84
2022-12-24T05:10:58.535Z,98250.31
2022-12-24T05:13:31.954Z,98264.94
2022-12-24T05:16:07.301Z,98273.53
2022-12-24T05:18:35.347Z,98257.88
2022-12-24T05:21:03.431Z,98254.78
2022-12-24T05:23:49.221Z,98257.25
2022-12-24T05:26:24.695Z,98251.72
2022-12-24T05:28:53.257Z,98235.69
2022-12-24T05:31:23.704Z,98228.53
2022-12-24T05:33:52.296Z,98226.13
2022-12-24T05:36:20.384Z,98217.63
2022-12-24T05:38:48.560Z,98228.09
2022-12-24T05:41:16.688Z,98232.69
2022-12-24T05:43:44.730Z,98227.44
2022-12-24T05:46:13.765Z,98222.81
2022-12-24T05:48:43.479Z,98230.28
2022-12-24T05:51:12.568Z,98227.94
2022-12-24T05:53:40.903Z,98233.59
2022-12-24T05:56:10.776Z,98234.72
2022-12-24T05:58:39.428Z,98239.28
2022-12-24T06:01:08.080Z,98241.53
2022-12-24T06:03:36.641Z,98239.28
2022-12-24T06:06:07.456Z,98263.78
2022-12-24T06:08:36.094Z,98264.75
2022-12-24T06:11:05.275Z,98260.09
2022-12-24T06:13:33.774Z,98252.78
2022-12-24T06:16:03.099Z,98252.09
2022-12-24T06:18:31.490Z,98257.78
2022-12-24T06:21:00.072Z,98256.22
2022-12-24T06:23:30.303Z,98263.72
2022-12-24T06:26:00.823Z,98256.69
2022-12-24T06:28:29.670Z,98265.25
2022-12-24T06:31:02.621Z,98261.69
2022-12-24T06:33:31.586Z,98278.56
2022-12-24T06:35:59.713Z,98280.78
2022-12-24T06:38:30.925Z,98283.50
2022-12-24T06:40:59.297Z,98263.75
2022-12-24T06:43:27.529Z,98278.28
2022-12-24T06:45:55.528Z,98294.53
2022-12-24T06:48:23.560Z,98293.47
2022-12-24T06:50:51.560Z,98304.97
2022-12-24T06:53:23.160Z,98302.19
2022-12-24T06:55:52.669Z,98317.63
2022-12-24T06:58:20.751Z,98316.41
2022-12-24T07:00:48.800Z,98317.06
2022-12-24T07:03:16.877Z,98309.59
2022-12-24T07:05:44.947Z,98302.81
2022-12-24T07:08:12.907Z,98307.19
2022-12-24T07:10:40.893Z,98311.00
2022-12-24T07:13:10.398Z,98309.63
2022-12-24T07:15:38.534Z,98315.03
2022-12-24T07:18:09.396Z,98321.00
2022-12-24T07:20:37.435Z,98329.88
2022-12-24T07:23:05.703Z,98329.09
2022-12-24T07:25:33.735Z,98334.88
2022-12-24T07:28:01.768Z,98337.19
2022-12-24T07:30:31.224Z,98344.22
2022-12-24T07:33:02.064Z,98346.31
2022-12-24T07:35:30.173Z,98344.78
2022-12-24T07:37:58.196Z,98340.06
2022-12-24T07:40:26.195Z,98342.91
2022-12-24T07:42:54.437Z,98326.25
2022-12-24T07:45:24.523Z,98338.22
2022-12-24T07:47:53.897Z,98326.84
2022-12-24T07:50:21.935Z,98331.56
2022-12-24T07:52:50.020Z,98346.78
2022-12-24T07:55:18.025Z,98333.94
2022-12-24T07:57:46.130Z,98343.75
2022-12-24T08:00:14.581Z,98353.56
2022-12-24T08:02:45.051Z,98359.41
2022-12-24T08:05:14.722Z,98363.91
2022-12-24T08:07:42.763Z,98369.03
2022-12-24T08:10:11.068Z,98375.13
2022-12-24T08:12:41.238Z,98378.09
2022-12-24T08:15:09.653Z,98380.94
2022-12-24T08:17:37.699Z,98385.03
2022-12-24T08:20:06.488Z,98373.09
2022-12-24T08:22:35.944Z,98378.19
2022-12-24T08:25:04.104Z,98382.41
2022-12-24T08:27:32.174Z,98378.66
2022-12-24T08:30:00.205Z,98381.50
2022-12-24T08:32:28.198Z,98380.47
2022-12-24T08:34:56.242Z,98392.69
2022-12-24T08:37:24.264Z,98386.69
2022-12-24T08:39:53.610Z,98382.63
2022-12-24T08:42:23.843Z,98384.09
2022-12-24T08:44:51.911Z,98391.69
2022-12-24T08:47:22.340Z,98385.88
2022-12-24T08:49:50.418Z,98394.00
2022-12-24T08:52:18.397Z,98401.44
2022-12-24T08:54:48.758Z,98403.13
2022-12-24T08:57:18.221Z,98409.78
2022-12-24T08:59:46.250Z,98411.13
2022-12-24T09:02:14.449Z,98415.31
2022-12-24T09:04:43.253Z,98414.50
2022-12-24T09:07:11.793Z,98420.56
2022-12-24T09:09:39.877Z,98417.66
2022-12-24T09:12:08.435Z,98421.63
2022-12-24T09:14:38.312Z,98426.81
2022-12-24T09:17:06.519Z,98430.53
2022-12-24T09:19:34.821Z,98438.56
2022-12-24T09:22:04.913Z,98443.69
2022-12-24T09:24:33.184Z,98431.81
2022-12-24T09:27:02.639Z,98436.91
2022-12-24T09:29:32.731Z,98444.78
2022-12-24T09:32:02.154Z,98435.69
2022-12-24T09:34:30.910Z,98438.63
2022-12-24T09:37:00.587Z,98436.53
2022-12-24T09:39:28.626Z,98441.91
2022-12-24T09:42:00.633Z,98440.13
2022-12-24T09:44:35.843Z,98442.91
2022-12-24T09:47:10.340Z,98448.69
2022-12-24T09:49:40.310Z,98453.03
2022-12-24T09:52:10.224Z,98450.03
2022-12-24T09:54:43.023Z,98454.75
2022-12-24T09:57:16.653Z,98458.91
2022-12-24T09:59:45.607Z,98455.16
2022-12-24T10:02:16.075Z,98454.59
2022-12-24T10:04:45.246Z,98452.13
2022-12-24T10:07:22.533Z,98462.13
2022-12-24T10:09:53.367Z,98467.34
2022-12-24T10:12:24.282Z,98478.97
2022-12-24T10:14:59.563Z,98486.31
2022-12-24T10:17:38.264Z,98490.41
2022-12-24T10:20:18.051Z,98491.59
2022-12-24T10:22:52.852Z,98504.22
2022-12-24T10:25:22.953Z,98515.69
2022-12-24T10:27:52.137Z,98510.91
2022-12-24T10:30:21.785Z,98498.97
2022-12-24T10:32:51.866Z,98523.34
2022-12-24T10:35:22.880Z,98522.00
2022-12-24T10:37:52.534Z,98522.53
2022-12-24T10:40:27.234Z,98522.69
2022-12-24T10:42:57.346Z,98527.50
2022-12-24T10:45:27.067Z,98543.97
2022-12-24T10:47:58.293Z,98536.81
2022-12-24T10:50:30.850Z,98540.00
2022-12-24T10:53:03.397Z,98540.72
2022-12-24T10:55:31.475Z,98557.06
2022-12-24T10:58:02.500Z,98551.19
2022-12-24T11:00:35.948Z,98528.78
2022-12-24T11:03:09.790Z,98533.41
2022-12-24T11:05:40.560Z,98532.22
2022-12-24T11:08:20.462Z,98526.22
2022-12-24T11:10:55.552Z,98529.66
2022-12-24T11:13:40.184Z,98536.19
2022-12-24T11:16:11.324Z,98532.00
2022-12-24T11:18:52.393Z,98534.09
2022-12-24T11:21:25.734Z,98531.47
2022-12-24T11:23:55.165Z,98541.28
2022-12-24T11:26:26.486Z,98531.69
2022-12-24T11:29:05.791Z,98546.41
2022-12-24T11:31:37.217Z,98538.06
2022-12-24T11:34:19.830Z,98550.44
2022-12-24T11:36:47.823Z,98545.03
2022-12-24T11:39:20.814Z,98556.06
2022-12-24T11:41:48.975Z,98550.91
2022-12-24T11:44:17.203Z,98556.50
2022-12-24T11:46:47.145Z,98554.44
2022-12-24T11:49:18.622Z,98552.78
2022-12-24T11:52:04.629Z,98539.50
2022-12-24T11:54:38.056Z,98538.91
2022-12-24T11:57:06.950Z,98544.59
2022-12-24T11:59:38.890Z,98541.88
2022-12-24T12:02:16.780Z,98542.22
2022-12-24T12:04:47.000Z,98542.31
2022-12-24T12:07:16.744Z,98535.38
2022-12-24T12:09:49.304Z,98536.66
2022-12-24T12:12:23.138Z,98535.63
2022-12-24T12:14:53.177Z,98524.94
2022-12-24T12:17:28.190Z,98524.88
2022-12-24T12:19:59.049Z,98516.44
2022-12-24T12:22:30.239Z,98515.53
2022-12-24T12:25:03.361Z,98525.03
2022-12-24T12:27:36.659Z,98520.72
2022-12-24T12:30:11.900Z,98529.66
2022-12-24T12:32:43.973Z,98541.53
2022-12-24T12:35:17.756Z,98539.94
2022-12-24T12:37:47.235Z,98539.66
2022-12-24T12:40:18.108Z,98536.22
2022-12-24T12:42:51.503Z,98528.50
2022-12-24T12:45:34.734Z,98537.63
2022-12-24T12:48:16.292Z,98545.31
2022-12-24T12:50:47.857Z,98540.34
2022-12-24T12:53:25.288Z,98540.63
2022-12-24T12:56:01.064Z,98544.53
2022-12-24T12:58:31.832Z,98537.84
2022-12-24T13:01:02.967Z,98541.28
2022-12-24T13:03:56.880Z,98540.53
2022-12-24T13:06:35.950Z,98516.28
2022-12-24T13:09:16.318Z,98513.25
2022-12-24T13:11:53.868Z,98515.44
2022-12-24T13:14:31.433Z,98516.03
2022-12-24T13:17:09.983Z,98517.38
2022-12-24T13:19:52.559Z,98501.72
2022-12-24T13:22:22.708Z,98493.66
2022-12-24T13:24:52.650Z,98488.63
2022-12-24T13:27:25.096Z,98489.50
2022-12-24T13:29:54.385Z,98489.81
2022-12-24T13:32:39.202Z,98479.34
2022-12-24T13:35:22.169Z,98484.28
2022-12-24T13:37:50.775Z,98486.41
2022-12-24T13:40:23.663Z,98485.03
2022-12-24T13:43:07.834Z,98502.53
2022-12-24T13:45:42.694Z,98503.22
2022-12-24T13:48:26.353Z,98507.81
2022-12-24T13:50:55.225Z,98503.47
2022-12-24T13:53:29.613Z,98502.41
2022-12-24T13:55:59.443Z,98495.06
2022-12-24T13:58:29.089Z,98494.91
2022-12-24T14:00:59.179Z,98493.97
2022-12-24T14:03:30.668Z,98499.81
2022-12-24T14:06:00.432Z,98497.16
2022-12-24T14:08:31.450Z,98493.88
2022-12-24T14:11:03.987Z,98493.34
2022-12-24T14:13:51.459Z,98496.59
2022-12-24T14:16:22.554Z,98488.78
2022-12-24T14:18:59.364Z,98476.25
2022-12-24T14:21:29.434Z,98473.91
2022-12-24T14:23:59.357Z,98485.56
2022-12-24T14:26:30.219Z,98487.72
2022-12-24T14:28:59.305Z,98493.88
2022-12-24T14:31:31.070Z,98480.41
2022-12-24T14:34:08.670Z,98478.19
2022-12-24T14:36:37.631Z,98480.91
2022-12-24T14:39:06.941Z,98474.28
2022-12-24T14:41:43.824Z,98477.22
2022-12-24T14:44:19.354Z,98487.41
2022-12-24T14:46:49.972Z,98491.22
2022-12-24T14:49:26.616Z,98501.09
2022-12-24T14:52:00.785Z,98514.16
2022-12-24T14:54:33.022Z,98517.34
2022-12-24T14:57:14.455Z,98508.75
2022-12-24T14:59:43.760Z,98513.84
2022-12-24T15:02:32.107Z,98523.19
2022-12-24T15:05:07.329Z,98521.38
2022-12-24T15:07:39.538Z,98529.41
2022-12-24T15:10:25.923Z,98531.44
2022-12-24T15:12:55.253Z,98536.66
2022-12-24T15:15:23.546Z,98537.09
2022-12-24T15:17:53.488Z,98541.78
2022-12-24T15:20:22.750Z,98546.13
2022-12-24T15:22:52.718Z,98548.00
2022-12-24T15:25:22.023Z,98555.34
2022-12-24T15:27:50.028Z,98559.78
2022-12-24T15:30:20.480Z,98565.00
2022-12-24T15:32:48.724Z,98573.25
2022-12-24T15:35:46.962Z,98570.22
2022-12-24T15:38:24.415Z,98574.22
2022-12-24T15:40:52.639Z,98566.69
2022-12-24T15:43:23.098Z,98570.41
2022-12-24T15:45:51.420Z,98580.22
2022-12-24T15:48:23.642Z,98603.13
2022-12-24T15:50:54.083Z,98611.97
2022-12-24T15:53:25.045Z,98616.97
2022-12-24T15:56:06.740Z,98615.19
2022-12-24T15:58:36.155Z,98604.53
2022-12-24T16:01:06.040Z,98597.00
2022-12-24T16:03:37.196Z,98599.59
2022-12-24T16:06:07.826Z,98598.56
2022-12-24T16:08:38.437Z,98595.06
2022-12-24T16:11:11.447Z,98593.25
2022-12-24T16:13:42.617Z,98588.91
2022-12-24T16:16:15.037Z,98590.28
2022-12-24T16:18:46.887Z,98598.47
2022-12-24T16:21:24.133Z,98604.69
2022-12-24T16:23:54.034Z,98607.97
2022-12-24T16:26:22.510Z,98612.50
2022-12-24T16:28:53.002Z,98605.66
2022-12-24T16:31:29.083Z,98610.72
2022-12-24T16:33:58.962Z,98600.47
2022-12-24T16:36:28.677Z,98602.13
2022-12-24T16:39:14.754Z,98620.03
2022-12-24T16:42:00.573Z,98627.78
2022-12-24T16:44:28.693Z,98635.88
2022-12-24T16:46:57.150Z,98638.06
2022-12-24T16:49:25.264Z,98639.56
2022-12-24T16:51:54.713Z,98650.13
2022-12-24T16:54:22.767Z,98648.25
2022-12-24T16:56:50.815Z,98649.34
2022-12-24T16:59:20.922Z,98649.09
2022-12-24T17:01:49.314Z,98648.28
2022-12-24T17:04:18.215Z,98653.66
2022-12-24T17:06:47.205Z,98644.56
2022-12-24T17:09:16.600Z,98659.47
2022-12-24T17:11:44.623Z,98655.50
2022-12-24T17:14:19.730Z,98670.25
2022-12-24T17:16:48.595Z,98681.66
2022-12-24T17:19:17.868Z,98676.84
2022-12-24T17:21:46.522Z,98682.19
2022-12-24T17:24:15.876Z,98681.00
2022-12-24T17:26:44.359Z,98684.94
2022-12-24T17:29:14.897Z,98684.72
2022-12-24T17:31:45.116Z,98680.06
2022-12-24T17:34:15.626Z,98674.75
2022-12-24T17:36:46.036Z,98678.47
2022-12-24T17:39:14.136Z,98680.75
2022-12-24T17:41:43.783Z,98680.16
2022-12-24T17:44:13.337Z,98677.50
2022-12-24T17:46:43.801Z,98682.97
2022-12-24T17:49:11.820Z,98678.66
2022-12-24T17:51:45.548Z,98678.00
2022-12-24T17:54:14.221Z,98679.88
2022-12-24T17:56:43.593Z,98673.22
2022-12-24T17:59:11.699Z,98663.91
2022-12-24T18:01:39.873Z,98662.78
2022-12-24T18:04:08.086Z,98651.03
2022-12-24T18:06:36.195Z,98650.38
2022-12-24T18:09:04.216Z,98646.88
2022-12-24T18:11:33.588Z,98628.56
2022-12-24T18:14:05.469Z,98638.41
2022-12-24T18:16:34.756Z,98625.13
2022-12-24T18:19:03.371Z,98626.03
2022-12-24T18:21:32.433Z,98633.72
2022-12-24T18:24:01.407Z,98633.84
2022-12-24T18:26:33.134Z,98639.03
2022-12-24T18:29:04.291Z,98640.88
2022-12-24T18:31:36.085Z,98634.47
2022-12-24T18:34:05.283Z,98638.19
2022-12-24T18:36:35.894Z,98639.84
2022-12-24T18:39:04.019Z,98650.47
2022-12-24T18:41:32.350Z,98649.28
2022-12-24T18:44:00.706Z,98652.81
2022-12-24T18:46:30.027Z,98661.97
2022-12-24T18:49:00.180Z,98658.41
2022-12-24T18:51:29.531Z,98652.41
2022-12-24T18:53:57.961Z,98658.63
2022-12-24T18:56:27.169Z,98657.13
2022-12-24T18:58:55.927Z,98662.03
2022-12-24T19:01:25.856Z,98661.72
2022-12-24T19:03:54.046Z,98659.34
2022-12-24T19:06:24.084Z,98650.50
2022-12-24T19:08:58.349Z,98655.06
2022-12-24T19:11:27.703Z,98652.16
2022-12-24T19:13:57.903Z,98648.00
2022-12-24T19:16:26.729Z,98647.56
2022-12-24T19:18:54.987Z,98644.44
2022-12-24T19:21:24.834Z,98640.03
2022-12-24T19:23:53.301Z,98623.69
2022-12-24T19:26:21.638Z,98631.34
2022-12-24T19:28:50.124Z,98633.63
2022-12-24T19:31:18.898Z,98634.47
2022-12-24T19:33:47.792Z,98635.34
2022-12-24T19:36:16.848Z,98636.38
2022-12-24T19:38:46.655Z,98644.66
2022-12-24T19:41:16.037Z,98649.50
2022-12-24T19:43:45.522Z,98660.69
2022-12-24T19:46:14.973Z,98677.38
2022-12-24T19:48:43.411Z,98652.00
2022-12-24T19:51:12.215Z,98690.06
2022-12-24T19:53:40.716Z,98688.63
2022-12-24T19:56:10.628Z,98695.84
2022-12-24T19:58:41.009Z,98693.34
2022-12-24T20:01:15.130Z,98707.34
2022-12-24T20:03:44.775Z,98713.75
2022-12-24T20:06:13.157Z,98714.78
2022-12-24T20:08:41.303Z,98722.44
2022-12-24T20:11:12.160Z,98729.06
2022-12-24T20:13:40.879Z,98729.88
2022-12-24T20:16:10.142Z,98727.81
2022-12-24T20:18:38.392Z,98726.59
2022-12-24T20:21:07.570Z,98715.16
2022-12-24T20:23:35.699Z,98712.03
2022-12-24T20:26:04.924Z,98711.44
2022-12-24T20:28:35.151Z,98697.53
2022-12-24T20:31:09.393Z,98689.47
2022-12-24T20:33:37.455Z,98692.66
2022-12-24T20:36:05.763Z,98693.47
2022-12-24T20:38:33.947Z,98691.59
2022-12-24T20:41:01.934Z,98694.22
2022-12-24T20:43:35.280Z,98688.78
2022-12-24T20:46:05.942Z,98705.34
2022-12-24T20:48:34.831Z,98693.19
2022-12-24T20:51:05.816Z,98699.44
2022-12-24T20:53:33.928Z,98693.81
2022-12-24T20:56:01.987Z,98688.00
2022-12-24T20:58:32.207Z,98692.97
2022-12-24T21:01:00.389Z,98683.03
2022-12-24T21:03:29.813Z,98679.16
2022-12-24T21:06:00.327Z,98668.38
2022-12-24T21:08:28.475Z,98673.59
2022-12-24T21:11:11.868Z,98681.22
2022-12-24T21:13:39.930Z,98680.47
2022-12-24T21:16:08.175Z,98683.72
2022-12-24T21:18:37.666Z,98692.47
2022-12-24T21:21:05.764Z,98705.91
2022-12-24T21:23:33.916Z,98701.97
2022-12-24T21:26:02.992Z,98715.47
2022-12-24T21:28:31.976Z,98709.91
2022-12-24T21:31:00.653Z,98724.44
2022-12-24T21:33:33.403Z,98742.69
2022-12-24T21:36:07.887Z,98747.06
2022-12-24T21:38:36.321Z,98762.44
2022-12-24T21:41:05.161Z,98768.84
2022-12-24T21:43:33.716Z,98762.00
2022-12-24T21:46:02.190Z,98774.44
2022-12-24T21:48:47.944Z,98761.59
2022-12-24T21:51:17.336Z,98760.53
2022-12-24T21:54:02.684Z,98747.25
2022-12-24T21:56:30.782Z,98732.72
2022-12-24T21:58:57.794Z,98717.53
2022-12-24T22:02:38.868Z,98690.47
2022-12-24T22:05:07.992Z,98692.84
2022-12-24T22:07:53.647Z,98678.88
2022-12-24T22:10:40.852Z,98690.00
2022-12-24T22:13:09.619Z,98686.38
2022-12-24T22:15:44.526Z,98674.94
2022-12-24T22:18:15.759Z,98680.34
2022-12-24T22:20:45.167Z,98672.66
2022-12-24T22:23:13.712Z,98670.88
2022-12-24T22:25:41.968Z,98669.81
2022-12-24T22:28:09.986Z,98660.91
2022-12-24T22:30:39.248Z,98644.69
2022-12-24T22:33:07.681Z,98655.94
2022-12-24T22:35:39.300Z,98660.91
2022-12-24T22:38:07.700Z,98673.31
2022-12-24T22:40:35.793Z,98671.34
2022-12-24T22:43:03.865Z,98665.75
2022-12-24T22:45:31.865Z,98661.91
2022-12-24T22:47:59.969Z,98650.88
2022-12-24T22:50:28.049Z,98659.66
2022-12-24T22:52:57.476Z,98667.97
2022-12-24T22:55:25.558Z,98678.31
2022-12-24T22:57:53.535Z,98680.59
2022-12-24T23:00:37.706Z,98679.53
2022-12-24T23:03:06.026Z,98678.53
2022-12-24T23:05:35.112Z,98671.28
2022-12-24T23:08:05.185Z,98681.44
2022-12-24T23:10:33.190Z,98678.31
2022-12-24T23:13:18.726Z,98675.44
2022-12-24T23:15:46.854Z,98672.31
2022-12-24T23:18:15.013Z,98671.91
2022-12-24T23:20:46.238Z,98674.78
2022-12-24T23:23:16.072Z,98682.66
2022-12-24T23:25:46.592Z,98681.84
2022-12-24T23:28:14.596Z,98675.16
2022-12-24T23:30:42.726Z,98665.69
2022-12-24T23:33:10.867Z,98669.81
2022-12-24T23:35:38.895Z,98668.78
2022-12-24T23:38:06.996Z,98660.66
2022-12-24T23:40:36.343Z,98655.06
2022-12-24T23:43:04.332Z,98653.63
2022-12-24T23:45:32.349Z,98660.66
2022-12-24T23:48:00.480Z,98658.09
2022-12-24T23:50:28.505Z,98659.06
2022-12-24T23:52:56.484Z,98655.75
2022-12-24T23:55:24.567Z,98661.94
2022-12-24T23:57:53.961Z,98659.47
